CheckWX is a tool to help pilots better visualize weather data.  It is not intended as a substitute for an official pre-flight weather briefing.

12:18:47 UTC

CYDB METAR
Burwash Airport
Burwash, Canada
Current

19 mins ago

CYDB 251200Z AUTO 00000KT 9SM SCT220 BKN240 M06/M08 A3013 RMK SLP246
Observed
Mar-25 @ 12:00 UTC
Visibility
9 SM
Flight Rules
VFR
Cloud Levels
  • Scattered at 22,000' AGL
  • Broken at 24,000' AGL
Temperature
-6°C / 21°F
Dewpoint
-8°C / 18°F
Humidity
86%
Altimeter
30.13" Hg
Pressure
1024.6 hPa
Previous

1 hour ago

CYDB 251100Z AUTO VRB04KT 9SM BKN210 BKN240 M05/M07 A3014 RMK SLP250
Observed
Mar-25 @ 11:00 UTC
Wind
  • Variable at 4 KTS
Visibility
9 SM
Flight Rules
VFR
Cloud Levels
  • Broken at 21,000' AGL
  • Broken at 24,000' AGL
Temperature
-5°C / 23°F
Dewpoint
-7°C / 19°F
Humidity
86%
Altimeter
30.14" Hg
Pressure
1025 hPa
Previous

2 hours ago

CYDB 251000Z AUTO 00000KT 9SM SCT160 BKN210 M04/M07 A3015 RMK SLP253
Observed
Mar-25 @ 10:00 UTC
Visibility
9 SM
Flight Rules
VFR
Cloud Levels
  • Scattered at 16,000' AGL
  • Broken at 21,000' AGL
Temperature
-4°C / 25°F
Dewpoint
-7°C / 19°F
Humidity
80%
Altimeter
30.15" Hg
Pressure
1025.3 hPa